sensor_id;sensor_type;location;lat;lon;timestamp;temperature;humidity
15949;DHT22;14848;50.954;6.642;2022-08-27T00:00:26;19.10;99.90
15949;DHT22;14848;50.954;6.642;2022-08-27T00:02:52;19.10;99.90
15949;DHT22;14848;50.954;6.642;2022-08-27T00:05:18;19.00;99.90
15949;DHT22;14848;50.954;6.642;2022-08-27T00:07:45;19.10;99.90
15949;DHT22;14848;50.954;6.642;2022-08-27T00:10:16;19.00;99.90
15949;DHT22;14848;50.954;6.642;2022-08-27T00:12:42;19.00;99.90
15949;DHT22;14848;50.954;6.642;2022-08-27T00:15:08;19.00;99.90
15949;DHT22;14848;50.954;6.642;2022-08-27T00:17:35;19.00;99.90
15949;DHT22;14848;50.954;6.642;2022-08-27T00:20:01;19.00;99.90
15949;DHT22;14848;50.954;6.642;2022-08-27T00:22:27;19.20;99.90
15949;DHT22;14848;50.954;6.642;2022-08-27T00:24:53;18.90;99.90
15949;DHT22;14848;50.954;6.642;2022-08-27T00:27:19;18.80;99.90
15949;DHT22;14848;50.954;6.642;2022-08-27T00:29:46;18.90;99.90
15949;DHT22;14848;50.954;6.642;2022-08-27T00:32:11;18.80;99.90
15949;DHT22;14848;50.954;6.642;2022-08-27T00:34:37;18.70;99.90
15949;DHT22;14848;50.954;6.642;2022-08-27T00:37:03;18.80;99.90
15949;DHT22;14848;50.954;6.642;2022-08-27T00:39:31;18.60;99.90
15949;DHT22;14848;50.954;6.642;2022-08-27T00:41:57;18.60;99.90
15949;DHT22;14848;50.954;6.642;2022-08-27T00:44:25;18.60;99.90
15949;DHT22;14848;50.954;6.642;2022-08-27T00:46:56;18.50;99.90
15949;DHT22;14848;50.954;6.642;2022-08-27T00:49:31;18.50;99.90
15949;DHT22;14848;50.954;6.642;2022-08-27T00:52:10;18.40;99.90
15949;DHT22;14848;50.954;6.642;2022-08-27T00:54:38;18.40;99.90
15949;DHT22;14848;50.954;6.642;2022-08-27T00:57:04;18.40;99.90
15949;DHT22;14848;50.954;6.642;2022-08-27T00:59:30;18.40;99.90
15949;DHT22;14848;50.954;6.642;2022-08-27T01:01:58;18.40;99.90
15949;DHT22;14848;50.954;6.642;2022-08-27T01:05:05;18.40;99.90
15949;DHT22;14848;50.954;6.642;2022-08-27T01:07:35;18.40;99.90
15949;DHT22;14848;50.954;6.642;2022-08-27T01:10:03;18.40;99.90
15949;DHT22;14848;50.954;6.642;2022-08-27T01:12:32;18.40;99.90
15949;DHT22;14848;50.954;6.642;2022-08-27T01:14:59;18.40;99.90
15949;DHT22;14848;50.954;6.642;2022-08-27T01:17:25;18.40;99.90
15949;DHT22;14848;50.954;6.642;2022-08-27T01:19:55;18.40;99.90
15949;DHT22;14848;50.954;6.642;2022-08-27T01:24:59;18.40;99.90
15949;DHT22;14848;50.954;6.642;2022-08-27T01:27:28;18.40;99.90
15949;DHT22;14848;50.954;6.642;2022-08-27T01:29:56;18.30;99.90
15949;DHT22;14848;50.954;6.642;2022-08-27T01:32:28;18.30;99.90
15949;DHT22;14848;50.954;6.642;2022-08-27T01:34:55;18.30;99.90
15949;DHT22;14848;50.954;6.642;2022-08-27T01:37:22;18.30;99.90
15949;DHT22;14848;50.954;6.642;2022-08-27T01:39:48;18.30;99.90
15949;DHT22;14848;50.954;6.642;2022-08-27T01:42:18;18.30;99.90
15949;DHT22;14848;50.954;6.642;2022-08-27T01:44:55;18.30;99.90
15949;DHT22;14848;50.954;6.642;2022-08-27T01:47:22;18.20;99.90
15949;DHT22;14848;50.954;6.642;2022-08-27T01:49:49;18.20;99.90
15949;DHT22;14848;50.954;6.642;2022-08-27T01:52:17;18.20;99.90
15949;DHT22;14848;50.954;6.642;2022-08-27T01:54:43;18.10;99.90
15949;DHT22;14848;50.954;6.642;2022-08-27T01:57:10;18.10;99.90
15949;DHT22;14848;50.954;6.642;2022-08-27T01:59:36;18.10;99.90
15949;DHT22;14848;50.954;6.642;2022-08-27T02:02:03;18.10;99.90
15949;DHT22;14848;50.954;6.642;2022-08-27T02:04:29;18.00;99.90
15949;DHT22;14848;50.954;6.642;2022-08-27T02:06:56;18.00;99.90
15949;DHT22;14848;50.954;6.642;2022-08-27T02:09:22;18.00;99.90
15949;DHT22;14848;50.954;6.642;2022-08-27T02:11:48;18.00;99.90
15949;DHT22;14848;50.954;6.642;2022-08-27T02:14:14;18.00;99.90
15949;DHT22;14848;50.954;6.642;2022-08-27T02:16:40;17.80;99.90
15949;DHT22;14848;50.954;6.642;2022-08-27T02:19:06;18.00;99.90
15949;DHT22;14848;50.954;6.642;2022-08-27T02:21:31;18.10;99.90
15949;DHT22;14848;50.954;6.642;2022-08-27T02:23:57;18.00;99.90
15949;DHT22;14848;50.954;6.642;2022-08-27T02:26:23;18.00;99.90
15949;DHT22;14848;50.954;6.642;2022-08-27T02:28:49;18.00;99.90
15949;DHT22;14848;50.954;6.642;2022-08-27T02:31:15;18.00;99.90
15949;DHT22;14848;50.954;6.642;2022-08-27T02:33:42;18.00;99.90
15949;DHT22;14848;50.954;6.642;2022-08-27T02:36:09;18.00;99.90
15949;DHT22;14848;50.954;6.642;2022-08-27T02:38:35;18.00;99.90
15949;DHT22;14848;50.954;6.642;2022-08-27T02:41:01;18.00;99.90
15949;DHT22;14848;50.954;6.642;2022-08-27T02:43:27;18.00;99.90
15949;DHT22;14848;50.954;6.642;2022-08-27T02:45:52;17.90;99.90
15949;DHT22;14848;50.954;6.642;2022-08-27T02:48:19;17.90;99.90
15949;DHT22;14848;50.954;6.642;2022-08-27T02:50:45;17.90;99.90
15949;DHT22;14848;50.954;6.642;2022-08-27T02:53:11;17.80;99.90
15949;DHT22;14848;50.954;6.642;2022-08-27T02:55:37;17.80;99.90
15949;DHT22;14848;50.954;6.642;2022-08-27T02:58:03;17.80;99.90
15949;DHT22;14848;50.954;6.642;2022-08-27T03:25:20;17.50;99.90
15949;DHT22;14848;50.954;6.642;2022-08-27T03:27:46;17.50;99.90
15949;DHT22;14848;50.954;6.642;2022-08-27T03:32:41;17.50;99.90
15949;DHT22;14848;50.954;6.642;2022-08-27T03:40:00;17.50;99.90
15949;DHT22;14848;50.954;6.642;2022-08-27T03:42:26;17.50;99.90
15949;DHT22;14848;50.954;6.642;2022-08-27T03:44:52;17.50;99.90
15949;DHT22;14848;50.954;6.642;2022-08-27T03:47:18;17.50;99.90
15949;DHT22;14848;50.954;6.642;2022-08-27T03:49:44;17.50;99.90
15949;DHT22;14848;50.954;6.642;2022-08-27T03:52:09;17.50;99.90
15949;DHT22;14848;50.954;6.642;2022-08-27T03:54:37;17.50;99.90
15949;DHT22;14848;50.954;6.642;2022-08-27T03:57:04;17.80;99.90
15949;DHT22;14848;50.954;6.642;2022-08-27T03:59:29;17.50;99.90
15949;DHT22;14848;50.954;6.642;2022-08-27T04:01:55;17.50;99.90
15949;DHT22;14848;50.954;6.642;2022-08-27T04:04:22;17.90;99.90
15949;DHT22;14848;50.954;6.642;2022-08-27T04:06:49;17.50;99.90
15949;DHT22;14848;50.954;6.642;2022-08-27T04:09:15;17.50;99.90
15949;DHT22;14848;50.954;6.642;2022-08-27T04:11:41;17.50;99.90
15949;DHT22;14848;50.954;6.642;2022-08-27T04:14:07;17.50;99.90
15949;DHT22;14848;50.954;6.642;2022-08-27T04:16:33;17.50;99.90
15949;DHT22;14848;50.954;6.642;2022-08-27T04:19:00;17.50;99.90
15949;DHT22;14848;50.954;6.642;2022-08-27T04:21:26;17.50;99.90
15949;DHT22;14848;50.954;6.642;2022-08-27T04:23:52;17.50;99.90
15949;DHT22;14848;50.954;6.642;2022-08-27T04:26:18;17.50;99.90
15949;DHT22;14848;50.954;6.642;2022-08-27T04:28:43;17.50;99.90
15949;DHT22;14848;50.954;6.642;2022-08-27T04:31:09;17.50;99.90
15949;DHT22;14848;50.954;6.642;2022-08-27T04:33:35;17.50;99.90
15949;DHT22;14848;50.954;6.642;2022-08-27T04:36:03;17.50;99.90
15949;DHT22;14848;50.954;6.642;2022-08-27T04:38:30;17.50;99.90
15949;DHT22;14848;50.954;6.642;2022-08-27T04:40:56;17.50;99.90
15949;DHT22;14848;50.954;6.642;2022-08-27T04:43:40;17.50;99.90
15949;DHT22;14848;50.954;6.642;2022-08-27T04:46:07;17.50;99.90
15949;DHT22;14848;50.954;6.642;2022-08-27T04:48:33;17.50;99.90
15949;DHT22;14848;50.954;6.642;2022-08-27T04:50:59;17.50;99.90
15949;DHT22;14848;50.954;6.642;2022-08-27T04:53:25;17.50;99.90
15949;DHT22;14848;50.954;6.642;2022-08-27T04:55:53;17.50;99.90
15949;DHT22;14848;50.954;6.642;2022-08-27T04:58:20;17.50;99.90
15949;DHT22;14848;50.954;6.642;2022-08-27T05:00:50;17.50;99.90
15949;DHT22;14848;50.954;6.642;2022-08-27T05:03:18;17.50;99.90
15949;DHT22;14848;50.954;6.642;2022-08-27T05:08:12;17.50;99.90
15949;DHT22;14848;50.954;6.642;2022-08-27T05:13:08;17.50;99.90
15949;DHT22;14848;50.954;6.642;2022-08-27T05:18:02;17.50;99.90
15949;DHT22;14848;50.954;6.642;2022-08-27T05:20:29;17.50;99.90
15949;DHT22;14848;50.954;6.642;2022-08-27T05:22:55;17.50;99.90
15949;DHT22;14848;50.954;6.642;2022-08-27T05:27:48;17.50;99.90
15949;DHT22;14848;50.954;6.642;2022-08-27T05:32:40;17.50;99.90
15949;DHT22;14848;50.954;6.642;2022-08-27T05:35:07;17.50;99.90
15949;DHT22;14848;50.954;6.642;2022-08-27T05:37:34;17.40;99.90
15949;DHT22;14848;50.954;6.642;2022-08-27T05:40:00;17.30;99.90
15949;DHT22;14848;50.954;6.642;2022-08-27T05:42:28;17.20;99.90
15949;DHT22;14848;50.954;6.642;2022-08-27T07:38:26;16.60;99.90
15949;DHT22;14848;50.954;6.642;2022-08-27T07:43:18;16.50;99.90
15949;DHT22;14848;50.954;6.642;2022-08-27T07:46:03;16.40;99.90
15949;DHT22;14848;50.954;6.642;2022-08-27T07:48:30;16.40;99.90
15949;DHT22;14848;50.954;6.642;2022-08-27T07:50:58;16.40;99.90
15949;DHT22;14848;50.954;6.642;2022-08-27T07:53:24;16.40;99.90
15949;DHT22;14848;50.954;6.642;2022-08-27T07:55:50;16.40;99.90
15949;DHT22;14848;50.954;6.642;2022-08-27T07:58:15;16.30;99.90
15949;DHT22;14848;50.954;6.642;2022-08-27T08:00:43;16.30;99.90
15949;DHT22;14848;50.954;6.642;2022-08-27T08:03:10;16.30;99.90
15949;DHT22;14848;50.954;6.642;2022-08-27T08:05:41;16.40;99.90
15949;DHT22;14848;50.954;6.642;2022-08-27T08:08:07;16.40;99.90
15949;DHT22;14848;50.954;6.642;2022-08-27T08:10:35;16.40;99.90
15949;DHT22;14848;50.954;6.642;2022-08-27T08:13:01;16.40;99.90
15949;DHT22;14848;50.954;6.642;2022-08-27T08:15:27;16.40;99.90
15949;DHT22;14848;50.954;6.642;2022-08-27T08:17:53;16.30;99.90
15949;DHT22;14848;50.954;6.642;2022-08-27T08:20:20;16.30;99.90
15949;DHT22;14848;50.954;6.642;2022-08-27T08:22:46;16.30;99.90
15949;DHT22;14848;50.954;6.642;2022-08-27T08:25:14;16.30;99.90
15949;DHT22;14848;50.954;6.642;2022-08-27T08:27:41;16.30;99.90
15949;DHT22;14848;50.954;6.642;2022-08-27T08:30:08;16.30;99.90
15949;DHT22;14848;50.954;6.642;2022-08-27T08:32:34;16.40;99.90
15949;DHT22;14848;50.954;6.642;2022-08-27T08:35:00;16.30;99.90
15949;DHT22;14848;50.954;6.642;2022-08-27T08:37:26;16.30;99.90
15949;DHT22;14848;50.954;6.642;2022-08-27T08:39:52;16.30;99.90
15949;DHT22;14848;50.954;6.642;2022-08-27T08:42:43;16.30;99.90
15949;DHT22;14848;50.954;6.642;2022-08-27T08:45:11;16.30;99.90
15949;DHT22;14848;50.954;6.642;2022-08-27T08:53:03;16.30;99.90
15949;DHT22;14848;50.954;6.642;2022-08-27T09:00:59;16.50;99.90
15949;DHT22;14848;50.954;6.642;2022-08-27T09:03:27;16.40;99.90
15949;DHT22;14848;50.954;6.642;2022-08-27T09:06:05;16.40;99.90
15949;DHT22;14848;50.954;6.642;2022-08-27T09:08:38;16.40;99.90
15949;DHT22;14848;50.954;6.642;2022-08-27T09:13:57;16.40;99.90
15949;DHT22;14848;50.954;6.642;2022-08-27T09:16:24;16.40;99.90
15949;DHT22;14848;50.954;6.642;2022-08-27T09:18:50;16.40;99.90
15949;DHT22;14848;50.954;6.642;2022-08-27T09:24:06;16.50;99.90
15949;DHT22;14848;50.954;6.642;2022-08-27T09:26:36;16.50;99.90
15949;DHT22;14848;50.954;6.642;2022-08-27T09:29:06;16.50;99.90
15949;DHT22;14848;50.954;6.642;2022-08-27T09:31:43;16.50;99.90
15949;DHT22;14848;50.954;6.642;2022-08-27T09:34:09;16.50;99.90
15949;DHT22;14848;50.954;6.642;2022-08-27T09:36:58;16.60;99.90
15949;DHT22;14848;50.954;6.642;2022-08-27T09:42:34;16.70;99.90
15949;DHT22;14848;50.954;6.642;2022-08-27T09:45:01;16.80;99.90
15949;DHT22;14848;50.954;6.642;2022-08-27T09:47:41;16.90;99.90
15949;DHT22;14848;50.954;6.642;2022-08-27T09:50:08;17.00;99.90
15949;DHT22;14848;50.954;6.642;2022-08-27T09:52:54;17.20;99.90
15949;DHT22;14848;50.954;6.642;2022-08-27T09:58:22;17.50;99.90
15949;DHT22;14848;50.954;6.642;2022-08-27T10:01:01;17.60;99.90
15949;DHT22;14848;50.954;6.642;2022-08-27T10:03:28;17.70;99.90
15949;DHT22;14848;50.954;6.642;2022-08-27T10:05:54;17.80;99.90
15949;DHT22;14848;50.954;6.642;2022-08-27T10:08:40;17.90;99.90
15949;DHT22;14848;50.954;6.642;2022-08-27T10:11:15;18.00;99.90
15949;DHT22;14848;50.954;6.642;2022-08-27T10:13:59;18.10;99.90
15949;DHT22;14848;50.954;6.642;2022-08-27T10:22:06;18.40;99.90
15949;DHT22;14848;50.954;6.642;2022-08-27T10:35:27;18.60;99.90
15949;DHT22;14848;50.954;6.642;2022-08-27T10:38:23;18.50;99.90
15949;DHT22;14848;50.954;6.642;2022-08-27T10:41:15;18.50;99.90
15949;DHT22;14848;50.954;6.642;2022-08-27T10:46:47;18.50;99.90
15949;DHT22;14848;50.954;6.642;2022-08-27T10:52:13;18.60;99.90
15949;DHT22;14848;50.954;6.642;2022-08-27T11:02:43;18.90;99.90
15949;DHT22;14848;50.954;6.642;2022-08-27T11:10:31;19.10;99.90
15949;DHT22;14848;50.954;6.642;2022-08-27T11:13:12;19.10;99.90
15949;DHT22;14848;50.954;6.642;2022-08-27T11:15:42;19.20;99.90
15949;DHT22;14848;50.954;6.642;2022-08-27T11:21:32;19.40;99.90
15949;DHT22;14848;50.954;6.642;2022-08-27T11:24:25;19.50;99.90
15949;DHT22;14848;50.954;6.642;2022-08-27T11:26:55;19.50;99.90
15949;DHT22;14848;50.954;6.642;2022-08-27T11:32:29;19.50;99.90
15949;DHT22;14848;50.954;6.642;2022-08-27T11:35:00;19.50;99.90
15949;DHT22;14848;50.954;6.642;2022-08-27T11:43:17;19.50;99.90
15949;DHT22;14848;50.954;6.642;2022-08-27T11:45:54;19.50;99.90
15949;DHT22;14848;50.954;6.642;2022-08-27T11:53:59;19.50;99.90
15949;DHT22;14848;50.954;6.642;2022-08-27T11:58:55;19.50;99.90
15949;DHT22;14848;50.954;6.642;2022-08-27T12:01:28;19.60;99.90
15949;DHT22;14848;50.954;6.642;2022-08-27T12:04:06;19.80;99.90
15949;DHT22;14848;50.954;6.642;2022-08-27T12:09:20;20.10;99.90
15949;DHT22;14848;50.954;6.642;2022-08-27T12:14:35;20.10;99.90
15949;DHT22;14848;50.954;6.642;2022-08-27T12:17:33;20.00;99.90
15949;DHT22;14848;50.954;6.642;2022-08-27T12:26:00;20.10;99.90
15949;DHT22;14848;50.954;6.642;2022-08-27T12:28:27;20.30;99.90
15949;DHT22;14848;50.954;6.642;2022-08-27T12:30:53;20.30;99.90
15949;DHT22;14848;50.954;6.642;2022-08-27T12:33:41;20.50;99.90
15949;DHT22;14848;50.954;6.642;2022-08-27T12:46:18;20.50;99.90
15949;DHT22;14848;50.954;6.642;2022-08-27T12:48:50;20.30;99.90
15949;DHT22;14848;50.954;6.642;2022-08-27T12:51:24;20.40;99.90
15949;DHT22;14848;50.954;6.642;2022-08-27T13:22:57;20.60;99.90
15949;DHT22;14848;50.954;6.642;2022-08-27T13:25:30;20.70;99.90
15949;DHT22;14848;50.954;6.642;2022-08-27T13:28:07;20.80;99.90
15949;DHT22;14848;50.954;6.642;2022-08-27T13:33:13;20.60;99.90
15949;DHT22;14848;50.954;6.642;2022-08-27T13:43:16;21.00;99.90
15949;DHT22;14848;50.954;6.642;2022-08-27T13:45:47;21.00;99.90
15949;DHT22;14848;50.954;6.642;2022-08-27T13:48:17;21.00;99.90
15949;DHT22;14848;50.954;6.642;2022-08-27T13:50:53;20.80;99.90
15949;DHT22;14848;50.954;6.642;2022-08-27T13:53:30;21.00;99.90
15949;DHT22;14848;50.954;6.642;2022-08-27T13:56:26;21.00;99.90
15949;DHT22;14848;50.954;6.642;2022-08-27T13:58:52;20.90;99.90
15949;DHT22;14848;50.954;6.642;2022-08-27T14:01:29;20.90;99.90
15949;DHT22;14848;50.954;6.642;2022-08-27T14:04:04;20.90;99.90
15949;DHT22;14848;50.954;6.642;2022-08-27T14:06:37;20.90;99.90
15949;DHT22;14848;50.954;6.642;2022-08-27T14:09:21;21.10;99.90
15949;DHT22;14848;50.954;6.642;2022-08-27T14:11:48;21.20;99.90
15949;DHT22;14848;50.954;6.642;2022-08-27T14:14:22;21.30;99.90
15949;DHT22;14848;50.954;6.642;2022-08-27T14:16:57;21.20;99.90
15949;DHT22;14848;50.954;6.642;2022-08-27T14:19:29;21.20;99.90
15949;DHT22;14848;50.954;6.642;2022-08-27T14:21:55;21.10;99.90
15949;DHT22;14848;50.954;6.642;2022-08-27T14:24:22;21.00;99.90
15949;DHT22;14848;50.954;6.642;2022-08-27T14:26:54;20.80;99.90
15949;DHT22;14848;50.954;6.642;2022-08-27T14:29:21;20.90;99.90
15949;DHT22;14848;50.954;6.642;2022-08-27T14:31:46;20.90;99.90
15949;DHT22;14848;50.954;6.642;2022-08-27T14:34:12;20.90;99.90
15949;DHT22;14848;50.954;6.642;2022-08-27T14:36:40;20.90;99.90
15949;DHT22;14848;50.954;6.642;2022-08-27T14:39:07;20.90;99.90
15949;DHT22;14848;50.954;6.642;2022-08-27T14:41:34;20.90;99.90
15949;DHT22;14848;50.954;6.642;2022-08-27T14:43:59;20.80;99.90
15949;DHT22;14848;50.954;6.642;2022-08-27T14:46:28;20.80;99.90
15949;DHT22;14848;50.954;6.642;2022-08-27T14:48:57;20.80;99.90
15949;DHT22;14848;50.954;6.642;2022-08-27T14:51:26;20.90;99.90
15949;DHT22;14848;50.954;6.642;2022-08-27T14:53:53;20.80;99.90
15949;DHT22;14848;50.954;6.642;2022-08-27T14:56:21;20.90;99.90
15949;DHT22;14848;50.954;6.642;2022-08-27T15:01:14;20.90;99.90
15949;DHT22;14848;50.954;6.642;2022-08-27T15:03:46;20.90;99.90
15949;DHT22;14848;50.954;6.642;2022-08-27T15:06:13;20.90;99.90
15949;DHT22;14848;50.954;6.642;2022-08-27T15:08:39;20.90;99.90
15949;DHT22;14848;50.954;6.642;2022-08-27T15:11:05;20.70;99.90
15949;DHT22;14848;50.954;6.642;2022-08-27T15:13:30;20.80;99.90
15949;DHT22;14848;50.954;6.642;2022-08-27T15:15:56;20.90;99.90
15949;DHT22;14848;50.954;6.642;2022-08-27T15:18:22;20.90;99.90
15949;DHT22;14848;50.954;6.642;2022-08-27T15:20:48;20.90;99.90
15949;DHT22;14848;50.954;6.642;2022-08-27T15:25:43;20.70;99.90
15949;DHT22;14848;50.954;6.642;2022-08-27T15:28:09;20.90;99.90
15949;DHT22;14848;50.954;6.642;2022-08-27T15:30:34;20.90;99.90
15949;DHT22;14848;50.954;6.642;2022-08-27T15:33:03;20.90;99.90
15949;DHT22;14848;50.954;6.642;2022-08-27T15:35:29;21.00;99.90
15949;DHT22;14848;50.954;6.642;2022-08-27T15:37:56;21.10;99.90
15949;DHT22;14848;50.954;6.642;2022-08-27T15:40:24;21.10;99.90
15949;DHT22;14848;50.954;6.642;2022-08-27T15:43:00;21.10;99.90
15949;DHT22;14848;50.954;6.642;2022-08-27T15:45:27;21.10;99.90
15949;DHT22;14848;50.954;6.642;2022-08-27T15:47:53;21.00;99.90
15949;DHT22;14848;50.954;6.642;2022-08-27T15:50:20;21.00;99.90
15949;DHT22;14848;50.954;6.642;2022-08-27T15:52:46;21.00;99.90
15949;DHT22;14848;50.954;6.642;2022-08-27T15:55:19;21.10;99.90
15949;DHT22;14848;50.954;6.642;2022-08-27T15:57:45;21.10;99.90
15949;DHT22;14848;50.954;6.642;2022-08-27T16:00:11;21.10;99.90
15949;DHT22;14848;50.954;6.642;2022-08-27T16:02:37;21.10;99.90
15949;DHT22;14848;50.954;6.642;2022-08-27T16:05:03;21.00;99.90
15949;DHT22;14848;50.954;6.642;2022-08-27T16:07:29;21.00;99.90
15949;DHT22;14848;50.954;6.642;2022-08-27T16:09:55;21.00;99.90
15949;DHT22;14848;50.954;6.642;2022-08-27T16:29:26;20.80;99.90
15949;DHT22;14848;50.954;6.642;2022-08-27T16:31:51;20.80;99.90
15949;DHT22;14848;50.954;6.642;2022-08-27T16:34:21;20.90;99.90
15949;DHT22;14848;50.954;6.642;2022-08-27T16:36:49;20.80;99.90
15949;DHT22;14848;50.954;6.642;2022-08-27T16:39:15;20.80;99.90
15949;DHT22;14848;50.954;6.642;2022-08-27T16:41:40;20.70;99.90
15949;DHT22;14848;50.954;6.642;2022-08-27T16:44:06;20.70;99.90
15949;DHT22;14848;50.954;6.642;2022-08-27T16:46:32;20.60;99.90
15949;DHT22;14848;50.954;6.642;2022-08-27T16:48:58;20.60;99.90
15949;DHT22;14848;50.954;6.642;2022-08-27T16:51:42;20.60;99.90
15949;DHT22;14848;50.954;6.642;2022-08-27T16:54:09;20.60;99.90
15949;DHT22;14848;50.954;6.642;2022-08-27T16:56:35;20.60;99.90
15949;DHT22;14848;50.954;6.642;2022-08-27T16:59:02;20.50;99.90
15949;DHT22;14848;50.954;6.642;2022-08-27T17:01:29;20.50;99.90
15949;DHT22;14848;50.954;6.642;2022-08-27T17:03:57;20.50;99.90
15949;DHT22;14848;50.954;6.642;2022-08-27T17:06:24;20.50;99.90
15949;DHT22;14848;50.954;6.642;2022-08-27T17:08:50;20.40;99.90
15949;DHT22;14848;50.954;6.642;2022-08-27T17:11:19;20.40;99.90
15949;DHT22;14848;50.954;6.642;2022-08-27T17:13:47;20.50;99.90
15949;DHT22;14848;50.954;6.642;2022-08-27T17:16:16;20.40;99.90
15949;DHT22;14848;50.954;6.642;2022-08-27T17:18:46;20.50;99.90
15949;DHT22;14848;50.954;6.642;2022-08-27T17:21:13;20.70;99.90
15949;DHT22;14848;50.954;6.642;2022-08-27T17:23:45;20.40;99.90
15949;DHT22;14848;50.954;6.642;2022-08-27T17:26:13;20.40;99.90
15949;DHT22;14848;50.954;6.642;2022-08-27T17:28:40;20.40;99.90
15949;DHT22;14848;50.954;6.642;2022-08-27T17:31:08;20.40;99.90
15949;DHT22;14848;50.954;6.642;2022-08-27T17:33:36;20.40;99.90
15949;DHT22;14848;50.954;6.642;2022-08-27T17:36:03;20.40;99.90
15949;DHT22;14848;50.954;6.642;2022-08-27T17:38:29;20.30;99.90
15949;DHT22;14848;50.954;6.642;2022-08-27T17:40:58;20.30;99.90
15949;DHT22;14848;50.954;6.642;2022-08-27T17:43:26;20.30;99.90
15949;DHT22;14848;50.954;6.642;2022-08-27T17:45:51;20.20;99.90
15949;DHT22;14848;50.954;6.642;2022-08-27T17:48:17;20.20;99.90
15949;DHT22;14848;50.954;6.642;2022-08-27T17:50:44;20.20;99.90
15949;DHT22;14848;50.954;6.642;2022-08-27T17:53:10;20.20;99.90
15949;DHT22;14848;50.954;6.642;2022-08-27T17:55:36;20.20;99.90
15949;DHT22;14848;50.954;6.642;2022-08-27T17:58:02;20.20;99.90
15949;DHT22;14848;50.954;6.642;2022-08-27T18:00:27;20.30;99.90
15949;DHT22;14848;50.954;6.642;2022-08-27T18:02:53;20.20;99.90
15949;DHT22;14848;50.954;6.642;2022-08-27T18:05:21;20.20;99.90
15949;DHT22;14848;50.954;6.642;2022-08-27T18:07:47;20.10;99.90
15949;DHT22;14848;50.954;6.642;2022-08-27T18:10:16;20.10;99.90
15949;DHT22;14848;50.954;6.642;2022-08-27T18:12:43;20.10;99.90
15949;DHT22;14848;50.954;6.642;2022-08-27T18:15:25;20.10;99.90
15949;DHT22;14848;50.954;6.642;2022-08-27T18:17:52;20.00;99.90
15949;DHT22;14848;50.954;6.642;2022-08-27T18:20:19;20.00;99.90
15949;DHT22;14848;50.954;6.642;2022-08-27T18:22:45;20.00;99.90
15949;DHT22;14848;50.954;6.642;2022-08-27T18:25:12;20.10;99.90
15949;DHT22;14848;50.954;6.642;2022-08-27T18:27:41;19.90;99.90
15949;DHT22;14848;50.954;6.642;2022-08-27T18:30:08;20.00;99.90
15949;DHT22;14848;50.954;6.642;2022-08-27T18:32:34;19.90;99.90
15949;DHT22;14848;50.954;6.642;2022-08-27T18:35:03;19.90;99.90
15949;DHT22;14848;50.954;6.642;2022-08-27T18:37:31;19.90;99.90
15949;DHT22;14848;50.954;6.642;2022-08-27T18:39:57;19.90;99.90
15949;DHT22;14848;50.954;6.642;2022-08-27T18:42:23;19.90;99.90
15949;DHT22;14848;50.954;6.642;2022-08-27T18:44:48;19.90;99.90
15949;DHT22;14848;50.954;6.642;2022-08-27T18:47:14;19.90;99.90
15949;DHT22;14848;50.954;6.642;2022-08-27T18:49:40;19.80;99.90
15949;DHT22;14848;50.954;6.642;2022-08-27T18:52:05;19.80;99.90
15949;DHT22;14848;50.954;6.642;2022-08-27T18:54:33;19.80;99.90
15949;DHT22;14848;50.954;6.642;2022-08-27T18:56:59;19.80;99.90
15949;DHT22;14848;50.954;6.642;2022-08-27T18:59:24;19.70;99.90
15949;DHT22;14848;50.954;6.642;2022-08-27T19:01:53;19.70;99.90
15949;DHT22;14848;50.954;6.642;2022-08-27T19:04:19;19.70;99.90
15949;DHT22;14848;50.954;6.642;2022-08-27T19:06:45;19.70;99.90
15949;DHT22;14848;50.954;6.642;2022-08-27T19:09:11;19.70;99.90
15949;DHT22;14848;50.954;6.642;2022-08-27T19:11:37;19.70;99.90
15949;DHT22;14848;50.954;6.642;2022-08-27T19:14:02;19.70;99.90
15949;DHT22;14848;50.954;6.642;2022-08-27T19:16:48;19.70;99.90
15949;DHT22;14848;50.954;6.642;2022-08-27T19:19:16;19.70;99.90
15949;DHT22;14848;50.954;6.642;2022-08-27T19:21:42;19.60;99.90
15949;DHT22;14848;50.954;6.642;2022-08-27T19:24:09;19.60;99.90
15949;DHT22;14848;50.954;6.642;2022-08-27T19:26:35;19.70;99.90
15949;DHT22;14848;50.954;6.642;2022-08-27T19:29:02;19.70;99.90
15949;DHT22;14848;50.954;6.642;2022-08-27T19:31:28;19.60;99.90
15949;DHT22;14848;50.954;6.642;2022-08-27T19:33:56;19.60;99.90
15949;DHT22;14848;50.954;6.642;2022-08-27T19:36:22;19.60;99.90
15949;DHT22;14848;50.954;6.642;2022-08-27T19:38:51;19.60;99.90
15949;DHT22;14848;50.954;6.642;2022-08-27T19:41:17;19.60;99.90
15949;DHT22;14848;50.954;6.642;2022-08-27T19:43:43;19.70;99.90
15949;DHT22;14848;50.954;6.642;2022-08-27T19:46:09;19.70;99.90
15949;DHT22;14848;50.954;6.642;2022-08-27T19:48:35;19.70;99.90
15949;DHT22;14848;50.954;6.642;2022-08-27T19:51:01;19.70;99.90
15949;DHT22;14848;50.954;6.642;2022-08-27T19:53:28;19.70;99.90
15949;DHT22;14848;50.954;6.642;2022-08-27T19:55:54;19.70;99.90
15949;DHT22;14848;50.954;6.642;2022-08-27T19:58:20;19.80;99.90
15949;DHT22;14848;50.954;6.642;2022-08-27T20:00:46;19.70;99.90
15949;DHT22;14848;50.954;6.642;2022-08-27T20:03:12;19.70;99.90
15949;DHT22;14848;50.954;6.642;2022-08-27T20:05:38;19.80;99.90
15949;DHT22;14848;50.954;6.642;2022-08-27T20:08:04;19.80;99.90
15949;DHT22;14848;50.954;6.642;2022-08-27T20:10:31;19.80;99.90
15949;DHT22;14848;50.954;6.642;2022-08-27T20:12:56;19.70;99.90
15949;DHT22;14848;50.954;6.642;2022-08-27T20:15:22;19.70;99.90
15949;DHT22;14848;50.954;6.642;2022-08-27T20:17:50;19.70;99.90
15949;DHT22;14848;50.954;6.642;2022-08-27T20:20:18;19.60;99.90
15949;DHT22;14848;50.954;6.642;2022-08-27T20:22:44;19.60;99.90
15949;DHT22;14848;50.954;6.642;2022-08-27T20:25:11;19.70;99.90
15949;DHT22;14848;50.954;6.642;2022-08-27T20:27:39;19.60;99.90
15949;DHT22;14848;50.954;6.642;2022-08-27T20:30:06;19.60;99.90
15949;DHT22;14848;50.954;6.642;2022-08-27T20:32:32;19.50;99.90
15949;DHT22;14848;50.954;6.642;2022-08-27T20:35:00;19.50;99.90
15949;DHT22;14848;50.954;6.642;2022-08-27T20:37:26;19.50;99.90
15949;DHT22;14848;50.954;6.642;2022-08-27T20:39:52;19.60;99.90
15949;DHT22;14848;50.954;6.642;2022-08-27T20:42:18;19.60;99.90
15949;DHT22;14848;50.954;6.642;2022-08-27T20:44:44;19.60;99.90
15949;DHT22;14848;50.954;6.642;2022-08-27T20:47:11;19.30;99.90
15949;DHT22;14848;50.954;6.642;2022-08-27T20:49:37;19.50;99.90
15949;DHT22;14848;50.954;6.642;2022-08-27T20:52:06;19.50;99.90
15949;DHT22;14848;50.954;6.642;2022-08-27T20:54:33;19.40;99.90
15949;DHT22;14848;50.954;6.642;2022-08-27T20:56:59;19.50;99.90
15949;DHT22;14848;50.954;6.642;2022-08-27T20:59:25;19.40;99.90
15949;DHT22;14848;50.954;6.642;2022-08-27T21:02:11;19.40;99.90